createdAt,value
2022-11-12T00:00:05.237Z,1020.51
2022-11-12T00:01:05.223Z,1020.48
2022-11-12T00:02:05.252Z,1020.47
2022-11-12T00:03:05.239Z,1020.48
2022-11-12T00:04:05.376Z,1020.47
2022-11-12T00:05:05.503Z,1020.45
2022-11-12T00:06:05.259Z,1020.45
2022-11-12T00:07:05.385Z,1020.46
2022-11-12T00:08:05.271Z,1020.45
2022-11-12T00:09:05.292Z,1020.42
2022-11-12T00:10:05.294Z,1020.43
2022-11-12T00:11:05.296Z,1020.43
2022-11-12T00:12:05.299Z,1020.45
2022-11-12T00:13:05.308Z,1020.42
2022-11-12T00:14:05.309Z,1020.43
2022-11-12T00:15:05.315Z,1020.43
2022-11-12T00:16:05.771Z,1020.46
2022-11-12T00:17:05.346Z,1020.49
2022-11-12T00:18:05.337Z,1020.43
2022-11-12T00:19:05.348Z,1020.41
2022-11-12T00:20:05.481Z,1020.43
2022-11-12T00:21:05.594Z,1020.47
2022-11-12T00:22:05.364Z,1020.41
2022-11-12T00:23:05.771Z,1020.4
2022-11-12T00:24:06.073Z,1020.39
2022-11-12T00:25:05.654Z,1020.4
2022-11-12T00:26:05.392Z,1020.42
2022-11-12T00:27:06.223Z,1020.4
2022-11-12T00:28:05.421Z,1020.5
2022-11-12T00:29:05.409Z,1020.49
2022-11-12T00:30:05.447Z,1020.46
2022-11-12T00:31:05.429Z,1020.42
2022-11-12T00:32:05.435Z,1020.45
2022-11-12T00:33:05.437Z,1020.44
2022-11-12T00:34:05.446Z,1020.42
2022-11-12T00:35:06.789Z,1020.43
2022-11-12T00:36:05.582Z,1020.4
2022-11-12T00:37:05.485Z,1020.36
2022-11-12T00:38:05.480Z,1020.36
2022-11-12T00:39:05.479Z,1020.36
2022-11-12T00:40:05.504Z,1020.4
2022-11-12T00:41:05.529Z,1020.45
2022-11-12T00:42:05.514Z,1020.41
2022-11-12T00:43:05.506Z,1020.43
2022-11-12T00:44:05.513Z,1020.4
2022-11-12T00:45:05.530Z,1020.41
2022-11-12T00:46:05.536Z,1020.46
2022-11-12T00:47:05.530Z,1020.42
2022-11-12T00:48:05.546Z,1020.41
2022-11-12T00:49:05.558Z,1020.39
2022-11-12T00:50:05.561Z,1020.45
2022-11-12T00:51:05.570Z,1020.44
2022-11-12T00:52:05.689Z,1020.44
2022-11-12T00:53:05.569Z,1020.4
2022-11-12T00:54:05.577Z,1020.39
2022-11-12T00:55:05.582Z,1020.37
2022-11-12T00:56:05.814Z,1020.37
2022-11-12T00:57:05.599Z,1020.38
2022-11-12T00:58:06.398Z,1020.37
2022-11-12T00:59:05.630Z,1020.36
2022-11-12T01:00:05.615Z,1020.35
2022-11-12T01:01:06.273Z,1020.35
2022-11-12T01:02:05.689Z,1020.36
2022-11-12T01:03:05.708Z,1020.37
2022-11-12T01:04:05.672Z,1020.35
2022-11-12T01:05:05.647Z,1020.36
2022-11-12T01:06:05.653Z,1020.39
2022-11-12T01:07:05.851Z,1020.4
2022-11-12T01:08:05.793Z,1020.35
2022-11-12T01:09:05.673Z,1020.36
2022-11-12T01:10:05.704Z,1020.33
2022-11-12T01:11:05.927Z,1020.32
2022-11-12T06:01:36.507Z,1020.64
2022-11-12T06:02:36.177Z,1020.61
2022-11-12T06:03:36.139Z,1020.65
2022-11-12T06:04:36.146Z,1020.66
2022-11-12T06:05:36.151Z,1020.62
2022-11-12T06:06:36.193Z,1020.67
2022-11-12T06:07:36.173Z,1020.66
2022-11-12T06:08:36.191Z,1020.69
2022-11-12T06:09:36.209Z,1020.69
2022-11-12T06:10:36.177Z,1020.71
2022-11-12T06:11:36.457Z,1020.77
2022-11-12T06:12:36.192Z,1020.78
2022-11-12T06:13:36.186Z,1020.77
2022-11-12T06:14:36.192Z,1020.79
2022-11-12T06:15:39.237Z,1020.79
2022-11-12T06:16:36.229Z,1020.74
2022-11-12T06:17:36.381Z,1020.76
2022-11-12T06:18:36.215Z,1020.76
2022-11-12T06:19:36.423Z,1020.76
2022-11-12T06:20:36.223Z,1020.74
2022-11-12T06:21:36.228Z,1020.76
2022-11-12T06:22:36.238Z,1020.75
2022-11-12T06:23:36.253Z,1020.74
2022-11-12T06:24:36.261Z,1020.73
2022-11-12T06:25:36.246Z,1020.75
2022-11-12T06:26:36.364Z,1020.71
2022-11-12T06:27:36.272Z,1020.73
2022-11-12T06:28:36.346Z,1020.75
2022-11-12T06:29:36.292Z,1020.72
2022-11-12T06:30:36.281Z,1020.72
2022-11-12T06:31:36.296Z,1020.72
2022-11-12T06:32:36.316Z,1020.69
2022-11-12T06:33:36.680Z,1020.71
2022-11-12T06:34:36.307Z,1020.66
2022-11-12T06:35:40.248Z,1020.64
2022-11-12T06:36:36.318Z,1020.68
2022-11-12T06:37:36.492Z,1020.73
2022-11-12T06:38:36.306Z,1020.74
2022-11-12T06:39:36.345Z,1020.74
2022-11-12T06:40:36.341Z,1020.77
2022-11-12T06:41:36.334Z,1020.8
2022-11-12T06:42:36.590Z,1020.8
2022-11-12T06:43:36.369Z,1020.74
2022-11-12T06:44:36.341Z,1020.81
2022-11-12T06:45:36.349Z,1020.78
2022-11-12T06:46:36.355Z,1020.84
2022-11-12T06:47:36.600Z,1020.84
2022-11-12T06:48:36.364Z,1020.83
2022-11-12T06:49:36.509Z,1020.83
2022-11-12T06:50:36.399Z,1020.82
2022-11-12T06:51:36.372Z,1020.82
2022-11-12T06:52:36.577Z,1020.88
2022-11-12T06:53:36.382Z,1020.9
2022-11-12T06:54:36.426Z,1020.89
2022-11-12T06:55:36.398Z,1020.87
2022-11-12T06:56:36.405Z,1020.84
2022-11-12T06:57:36.643Z,1020.87
2022-11-12T06:58:36.410Z,1020.85
2022-11-12T06:59:36.434Z,1020.89
2022-11-12T07:00:36.449Z,1020.87
2022-11-12T07:01:36.451Z,1020.9
2022-11-12T07:02:36.674Z,1020.92
2022-11-12T07:03:36.434Z,1020.91
2022-11-12T07:04:36.468Z,1020.91
2022-11-12T07:05:36.569Z,1020.89
2022-11-12T07:06:36.500Z,1020.85
2022-11-12T07:07:36.553Z,1020.83
2022-11-12T07:08:36.459Z,1020.83
2022-11-12T07:09:36.461Z,1020.82
2022-11-12T07:10:36.472Z,1020.86
2022-11-12T07:11:36.472Z,1020.84
2022-11-12T07:12:36.602Z,1020.85
2022-11-12T07:13:36.484Z,1020.87
2022-11-12T07:14:36.492Z,1020.89
2022-11-12T07:15:36.508Z,1020.9
2022-11-12T07:16:36.496Z,1020.88
2022-11-12T07:17:36.589Z,1020.91
2022-11-12T07:18:36.520Z,1020.89
2022-11-12T07:19:36.519Z,1020.94
2022-11-12T07:20:36.522Z,1020.94
2022-11-12T07:21:36.650Z,1020.97
2022-11-12T07:22:36.601Z,1020.94
2022-11-12T07:23:36.534Z,1020.95
2022-11-12T07:24:36.544Z,1020.91
2022-11-12T07:25:36.541Z,1020.93
2022-11-12T07:26:36.546Z,1020.86
2022-11-12T07:27:36.653Z,1020.88
2022-11-12T07:28:36.564Z,1020.87
2022-11-12T07:29:47.339Z,1020.91
2022-11-12T07:30:36.571Z,1020.91
2022-11-12T07:31:36.566Z,1020.96
2022-11-12T07:32:42.009Z,1020.97
2022-11-12T07:33:36.587Z,1020.96
2022-11-12T07:34:36.592Z,1020.98
2022-11-12T07:35:36.905Z,1020.93
2022-11-12T07:36:36.615Z,1020.89
2022-11-12T07:37:36.733Z,1020.9
2022-11-12T07:38:36.618Z,1020.86
2022-11-12T07:39:36.636Z,1020.86
2022-11-12T07:40:36.630Z,1020.89
2022-11-12T07:41:36.642Z,1020.87
2022-11-12T07:42:37.262Z,1020.87
2022-11-12T07:43:37.072Z,1020.89
2022-11-12T07:44:36.658Z,1020.89
2022-11-12T07:45:36.661Z,1020.86
2022-11-12T07:46:36.657Z,1020.9
2022-11-12T07:47:36.734Z,1020.88
2022-11-12T07:48:36.673Z,1020.88
2022-11-12T07:49:36.676Z,1020.86
2022-11-12T07:50:36.698Z,1020.87
2022-11-12T07:51:36.691Z,1020.9
2022-11-12T07:52:36.740Z,1020.95
2022-11-12T07:53:36.818Z,1020.93
2022-11-12T07:54:36.748Z,1020.94
2022-11-12T07:55:36.720Z,1020.92
2022-11-12T07:56:36.728Z,1020.94
2022-11-12T07:57:36.743Z,1020.95
2022-11-12T07:58:36.743Z,1020.92
2022-11-12T07:59:38.643Z,1020.9
2022-11-12T08:00:36.743Z,1020.88
2022-11-12T08:01:36.796Z,1020.85
2022-11-12T08:02:36.771Z,1020.84
2022-11-12T08:03:36.773Z,1020.87
2022-11-12T08:04:36.776Z,1020.88
2022-11-12T08:05:36.780Z,1020.9
2022-11-12T08:06:36.923Z,1020.86
2022-11-12T08:07:37.113Z,1020.86
2022-11-12T08:08:36.801Z,1020.87
2022-11-12T08:09:36.932Z,1020.86
2022-11-12T08:10:36.824Z,1020.86
2022-11-12T08:11:36.821Z,1020.9
2022-11-12T08:12:36.846Z,1020.88
2022-11-12T08:13:36.846Z,1020.86
2022-11-12T08:14:36.840Z,1020.87
2022-11-12T08:15:36.853Z,1020.91
2022-11-12T08:16:36.855Z,1020.9
2022-11-12T08:17:36.867Z,1020.89
2022-11-12T08:18:36.864Z,1020.9
2022-11-12T08:19:36.882Z,1020.86
2022-11-12T08:20:36.885Z,1020.86
2022-11-12T08:21:36.895Z,1020.83
2022-11-12T08:22:36.902Z,1020.87
2022-11-12T08:23:36.912Z,1020.83
2022-11-12T08:24:36.915Z,1020.85
2022-11-12T08:25:37.172Z,1020.85
2022-11-12T08:26:36.929Z,1020.86
2022-11-12T08:27:36.940Z,1020.89
2022-11-12T08:28:36.996Z,1020.89
2022-11-12T08:29:36.953Z,1020.85
2022-11-12T08:30:36.964Z,1020.87
2022-11-12T08:31:36.992Z,1020.86
2022-11-12T08:32:36.982Z,1020.92
2022-11-12T08:33:36.989Z,1020.9
2022-11-12T08:34:36.993Z,1020.91
2022-11-12T08:35:37.013Z,1020.96
2022-11-12T08:36:37.146Z,1020.93
2022-11-12T08:37:37.017Z,1020.97
2022-11-12T08:38:37.174Z,1020.97
2022-11-12T08:39:37.035Z,1020.97
2022-11-12T08:40:37.323Z,1020.97
2022-11-12T08:41:37.177Z,1021
2022-11-12T08:42:37.064Z,1021.01
2022-11-12T08:43:37.074Z,1021.03
2022-11-12T08:44:37.082Z,1021.05
2022-11-12T08:45:37.092Z,1021.1
2022-11-12T08:46:37.106Z,1021.11
2022-11-12T08:47:37.105Z,1021.17
2022-11-12T08:48:37.114Z,1021.17
2022-11-12T08:49:37.123Z,1021.15
2022-11-12T08:50:37.137Z,1021.14
2022-11-12T08:51:37.148Z,1021.15
2022-11-12T08:52:37.150Z,1021.15
2022-11-12T08:53:37.160Z,1021.13
2022-11-12T08:54:37.167Z,1021.14
2022-11-12T08:55:37.178Z,1021.11
2022-11-12T08:56:37.189Z,1021.09
2022-11-12T08:57:37.319Z,1021.09
2022-11-12T08:58:37.206Z,1021.06
2022-11-12T08:59:37.217Z,1021.08
2022-11-12T09:00:37.227Z,1021.06
2022-11-12T09:01:37.261Z,1021.06
2022-11-12T09:02:37.449Z,1021.11
2022-11-12T09:03:37.271Z,1021.15
2022-11-12T09:04:37.304Z,1021.1
2022-11-12T09:05:37.316Z,1021.07
2022-11-12T09:06:37.374Z,1021.06
2022-11-12T09:07:49.725Z,1021.06
2022-11-12T09:08:37.308Z,1021.06
2022-11-12T09:09:37.329Z,1021.02
2022-11-12T09:10:37.335Z,1021.04
2022-11-12T09:11:37.404Z,1021.01
2022-11-12T09:12:37.358Z,1021.07
2022-11-12T09:13:37.544Z,1021.03
2022-11-12T09:14:37.385Z,1021.03
2022-11-12T09:15:38.479Z,1021.06
2022-11-12T09:16:37.392Z,1021.06
2022-11-12T09:17:37.400Z,1021.09
2022-11-12T09:18:37.423Z,1021.08
2022-11-12T09:19:41.645Z,1021.05
2022-11-12T09:20:37.429Z,1021.03
2022-11-12T09:21:37.439Z,1021.09
2022-11-12T09:22:37.452Z,1021.07
2022-11-12T09:23:37.465Z,1021.07
2022-11-12T09:24:37.474Z,1021.1
2022-11-12T09:25:37.487Z,1021.12
2022-11-12T09:26:37.492Z,1021.1
2022-11-12T09:27:37.506Z,1021.09
2022-11-12T09:28:37.517Z,1021.07
2022-11-12T09:29:37.648Z,1021.06
2022-11-12T09:30:37.544Z,1021.03
2022-11-12T09:31:37.553Z,1021.05
2022-11-12T09:32:37.570Z,1021.01
2022-11-12T09:33:37.602Z,1021.04
2022-11-12T09:34:37.589Z,1021.1
2022-11-12T09:35:37.596Z,1021.14
2022-11-12T09:36:39.878Z,1021.12
2022-11-12T09:37:37.731Z,1021.1
2022-11-12T09:38:37.635Z,1021.06
2022-11-12T09:39:37.875Z,1021.07
2022-11-12T09:40:37.652Z,1021.05
2022-11-12T09:41:37.805Z,1021.06
2022-11-12T09:42:37.696Z,1021.08
2022-11-12T09:43:37.723Z,1021.08
2022-11-12T09:44:37.753Z,1021.11
2022-11-12T09:45:37.842Z,1021.11
2022-11-12T09:46:41.387Z,1021.12
2022-11-12T09:47:41.392Z,1021.09
2022-11-12T09:48:41.401Z,1021.08
2022-11-12T09:49:41.412Z,1021.11
2022-11-12T09:50:41.423Z,1021.09
2022-11-12T09:51:41.440Z,1021.11
2022-11-12T09:52:41.450Z,1021.13
2022-11-12T09:53:44.217Z,1021.05
2022-11-12T09:54:41.475Z,1021.07
2022-11-12T09:55:41.486Z,1021.07
2022-11-12T09:56:41.497Z,1021.08
2022-11-12T09:57:41.513Z,1021.08
2022-11-12T09:58:41.521Z,1021.12
2022-11-12T09:59:41.540Z,1021.11
2022-11-12T10:00:44.945Z,1021.1
2022-11-12T10:01:41.593Z,1021.11
2022-11-12T10:02:41.565Z,1021.15
2022-11-12T10:03:41.585Z,1021.16
2022-11-12T10:04:41.599Z,1021.17
2022-11-12T10:05:41.607Z,1021.19
2022-11-12T10:06:41.656Z,1021.2
2022-11-12T10:07:41.632Z,1021.22
2022-11-12T10:08:41.641Z,1021.17
2022-11-12T10:09:41.658Z,1021.12
2022-11-12T10:10:41.664Z,1021.13
2022-11-12T10:11:41.680Z,1021.17
2022-11-12T10:12:41.695Z,1021.14
2022-11-12T10:13:41.731Z,1021.14
2022-11-12T10:14:41.717Z,1021.16
2022-11-12T10:15:41.729Z,1021.16
2022-11-12T10:16:41.862Z,1021.19
2022-11-12T10:17:41.752Z,1021.21
2022-11-12T10:18:41.811Z,1021.23
2022-11-12T10:19:41.786Z,1021.24
2022-11-12T10:20:41.794Z,1021.27
2022-11-12T10:21:41.813Z,1021.25
2022-11-12T10:22:41.825Z,1021.27
2022-11-12T10:23:41.851Z,1021.31
2022-11-12T10:24:41.844Z,1021.33
2022-11-12T10:25:41.861Z,1021.34
2022-11-12T10:26:41.872Z,1021.28
2022-11-12T10:27:41.891Z,1021.28
2022-11-12T10:28:41.902Z,1021.28
2022-11-12T10:29:41.913Z,1021.28
2022-11-12T10:30:41.930Z,1021.28
2022-11-12T10:31:41.941Z,1021.25
2022-11-12T10:32:42.071Z,1021.26
2022-11-12T10:33:41.967Z,1021.22
2022-11-12T10:34:41.986Z,1021.24
2022-11-12T10:35:41.991Z,1021.24
2022-11-12T10:36:42.123Z,1021.21
2022-11-12T10:37:42.043Z,1021.21
2022-11-12T10:38:42.037Z,1021.27
2022-11-12T10:39:42.067Z,1021.26
2022-11-12T10:40:42.067Z,1021.28
2022-11-12T10:41:42.091Z,1021.23
2022-11-12T10:42:42.105Z,1021.23
2022-11-12T10:43:42.105Z,1021.23
2022-11-12T10:44:42.118Z,1021.22
2022-11-12T10:45:42.131Z,1021.18
2022-11-12T10:46:42.149Z,1021.16
2022-11-12T10:47:42.163Z,1021.13
2022-11-12T10:48:42.292Z,1021.12
2022-11-12T10:49:42.223Z,1021.13
2022-11-12T10:50:42.367Z,1021.14
2022-11-12T10:51:42.305Z,1021.09
2022-11-12T10:52:42.328Z,1021.11
2022-11-12T10:53:42.290Z,1021.08
2022-11-12T10:54:42.258Z,1021.06
2022-11-12T10:55:42.270Z,1021.06
2022-11-12T10:56:42.289Z,1021.1
2022-11-12T10:57:42.311Z,1021.14
2022-11-12T10:58:42.316Z,1021.14
2022-11-12T10:59:42.326Z,1021.15
2022-11-12T11:00:42.340Z,1021.16
2022-11-12T11:01:45.634Z,1021.15
2022-11-12T11:02:42.372Z,1021.18
2022-11-12T11:03:42.393Z,1021.22
2022-11-12T11:04:42.521Z,1021.21
2022-11-12T11:05:42.412Z,1021.19
2022-11-12T11:06:42.475Z,1021.21
2022-11-12T11:07:42.450Z,1021.25
2022-11-12T11:08:42.468Z,1021.23
2022-11-12T11:09:42.474Z,1021.25
2022-11-12T11:10:42.511Z,1021.26
2022-11-12T11:11:42.573Z,1021.17
2022-11-12T11:12:42.538Z,1021.19
2022-11-12T11:13:42.532Z,1021.12
2022-11-12T11:14:42.541Z,1021.14
2022-11-12T11:15:42.560Z,1021.12
2022-11-12T11:16:42.571Z,1021.12
2022-11-12T11:17:42.585Z,1021.11
2022-11-12T11:18:42.596Z,1021.12
2022-11-12T11:19:42.615Z,1021.09
2022-11-12T11:20:42.756Z,1021.07
2022-11-12T11:21:44.445Z,1021.06
2022-11-12T11:22:42.659Z,1021.08
2022-11-12T11:23:42.675Z,1021.09
2022-11-12T11:24:42.693Z,1021.14
2022-11-12T11:25:42.702Z,1021.16
2022-11-12T11:26:42.716Z,1021.14
2022-11-12T11:27:43.218Z,1021.1
2022-11-12T11:28:42.741Z,1021.04
2022-11-12T11:29:42.769Z,1021.01
2022-11-12T11:30:42.774Z,1020.96
2022-11-12T11:31:42.788Z,1020.97
2022-11-12T11:32:42.805Z,1020.95
2022-11-12T11:33:42.822Z,1020.98
2022-11-12T11:34:42.832Z,1020.95
2022-11-12T11:35:42.857Z,1020.98
2022-11-12T11:36:43.001Z,1020.98
2022-11-12T11:37:42.878Z,1020.98
2022-11-12T11:38:42.895Z,1020.94
2022-11-12T11:39:42.911Z,1020.93
2022-11-12T11:40:42.929Z,1020.88
2022-11-12T11:41:42.936Z,1020.86
2022-11-12T11:42:42.958Z,1020.86
2022-11-12T11:43:43.262Z,1020.83
2022-11-12T11:44:42.988Z,1020.86
2022-11-12T11:45:43.002Z,1020.84
2022-11-12T11:46:43.242Z,1020.82
2022-11-12T11:47:59.758Z,1020.8
2022-11-12T11:48:43.248Z,1020.79
2022-11-12T11:49:43.075Z,1020.78
2022-11-12T11:50:43.693Z,1020.76
2022-11-12T11:51:43.262Z,1020.73
2022-11-12T11:52:43.227Z,1020.71
2022-11-12T11:53:43.123Z,1020.72
2022-11-12T11:54:43.145Z,1020.71
2022-11-12T11:55:43.164Z,1020.7
2022-11-12T11:56:43.182Z,1020.68
2022-11-12T11:57:43.191Z,1020.7
2022-11-12T11:58:43.206Z,1020.66
2022-11-12T11:59:43.218Z,1020.67
2022-11-12T12:00:43.242Z,1020.66
2022-11-12T12:01:43.253Z,1020.67
2022-11-12T12:02:43.489Z,1020.65
2022-11-12T12:03:43.975Z,1020.64
2022-11-12T12:04:43.296Z,1020.57
2022-11-12T12:05:43.585Z,1020.58
2022-11-12T12:06:43.398Z,1020.6
2022-11-12T12:07:43.343Z,1020.58
2022-11-12T12:08:43.570Z,1020.61
2022-11-12T12:09:43.376Z,1020.65
2022-11-12T12:11:06.676Z,1020.63
2022-11-12T12:11:43.401Z,1020.64
2022-11-12T12:12:43.418Z,1020.6
2022-11-12T12:13:43.467Z,1020.65
2022-11-12T12:14:43.451Z,1020.61
2022-11-12T12:15:43.463Z,1020.61
2022-11-12T12:16:43.480Z,1020.59
2022-11-12T12:17:43.492Z,1020.62
2022-11-12T12:18:43.506Z,1020.56
2022-11-12T12:19:43.523Z,1020.57
2022-11-12T12:20:43.536Z,1020.53
2022-11-12T12:21:43.558Z,1020.5
2022-11-12T12:22:43.565Z,1020.56
2022-11-12T12:23:43.578Z,1020.51
2022-11-12T12:24:43.712Z,1020.52
2022-11-12T12:25:43.616Z,1020.53
2022-11-12T12:26:43.633Z,1020.55
2022-11-12T12:27:43.646Z,1020.52
2022-11-12T12:28:43.664Z,1020.49
2022-11-12T12:29:43.671Z,1020.5
2022-11-12T12:30:43.698Z,1020.46
2022-11-12T12:31:43.703Z,1020.45
2022-11-12T12:32:43.725Z,1020.43
2022-11-12T12:33:43.750Z,1020.37
2022-11-12T12:34:43.754Z,1020.42
2022-11-12T12:35:43.775Z,1020.41
2022-11-12T12:36:43.798Z,1020.34
2022-11-12T12:37:43.901Z,1020.37
2022-11-12T12:38:43.956Z,1020.41
2022-11-12T12:39:47.819Z,1020.37
2022-11-12T12:40:43.963Z,1020.38
2022-11-12T12:41:43.877Z,1020.37
2022-11-12T12:42:43.893Z,1020.38
2022-11-12T12:43:43.893Z,1020.33
2022-11-12T12:44:43.924Z,1020.38
2022-11-12T12:45:43.942Z,1020.36
2022-11-12T12:46:44.164Z,1020.37
2022-11-12T12:47:44.113Z,1020.4
2022-11-12T12:48:43.988Z,1020.37
2022-11-12T12:49:44.009Z,1020.38
2022-11-12T12:50:44.023Z,1020.36
2022-11-12T12:51:44.039Z,1020.37
2022-11-12T12:52:44.057Z,1020.34
2022-11-12T12:53:44.080Z,1020.37
2022-11-12T12:54:44.100Z,1020.36
2022-11-12T12:55:44.122Z,1020.35
2022-11-12T12:56:44.360Z,1020.36
2022-11-12T12:57:44.154Z,1020.33
2022-11-12T12:58:44.182Z,1020.35
2022-11-12T12:59:44.200Z,1020.33
2022-11-12T13:00:44.288Z,1020.31
2022-11-12T13:01:44.239Z,1020.37
2022-11-12T13:02:44.264Z,1020.38
2022-11-12T13:03:44.291Z,1020.37
2022-11-12T13:04:44.299Z,1020.38
2022-11-12T13:05:44.328Z,1020.37
2022-11-12T13:06:44.387Z,1020.36
2022-11-12T13:07:44.378Z,1020.37
2022-11-12T13:08:44.393Z,1020.36
2022-11-12T13:09:44.410Z,1020.31
2022-11-12T13:10:44.427Z,1020.24
2022-11-12T13:11:44.454Z,1020.28
2022-11-12T13:12:44.586Z,1020.27
2022-11-12T13:13:44.608Z,1020.24
2022-11-12T13:14:44.709Z,1020.2
2022-11-12T13:15:44.622Z,1020.21
2022-11-12T13:16:44.599Z,1020.24
2022-11-12T13:17:44.626Z,1020.23
2022-11-12T13:18:44.633Z,1020.23
2022-11-12T13:19:44.631Z,1020.25
2022-11-12T13:20:44.691Z,1020.15
2022-11-12T13:21:44.669Z,1020.09
2022-11-12T13:22:44.708Z,1020.09
2022-11-12T13:23:44.712Z,1020.11
2022-11-12T13:24:44.756Z,1020.11
2022-11-12T13:25:44.769Z,1020.13
2022-11-12T13:26:44.800Z,1020.16
2022-11-12T13:27:44.800Z,1020.21
2022-11-12T13:28:44.950Z,1020.21
2022-11-12T13:29:44.848Z,1020.23
2022-11-12T13:30:44.845Z,1020.17
2022-11-12T13:31:44.860Z,1020.16
2022-11-12T13:32:44.897Z,1020.11
2022-11-12T13:33:44.899Z,1020.12
2022-11-12T13:34:44.920Z,1020.11
2022-11-12T13:35:45.140Z,1020.15
2022-11-12T13:36:45.156Z,1020.16
2022-11-12T13:37:44.988Z,1020.11
2022-11-12T13:38:44.991Z,1020.12
2022-11-12T13:39:45.010Z,1020.14
2022-11-12T13:40:45.040Z,1020.08
2022-11-12T13:41:45.065Z,1020.11
2022-11-12T13:42:45.091Z,1020.13
2022-11-12T13:43:45.103Z,1020.17
2022-11-12T13:44:45.230Z,1020.14
2022-11-12T13:45:45.132Z,1020.09
2022-11-12T13:46:45.140Z,1020.09
2022-11-12T13:47:45.155Z,1020.06
2022-11-12T13:48:45.161Z,1020.06
2022-11-12T13:49:45.185Z,1020.02
2022-11-12T13:50:45.201Z,1020.06
2022-11-12T13:51:45.217Z,1020.01
2022-11-12T13:52:45.457Z,1020.03
2022-11-12T13:53:45.257Z,1020.04
2022-11-12T13:54:45.261Z,1020.01
2022-11-12T13:55:45.277Z,1020
2022-11-12T13:56:45.298Z,1020.04
2022-11-12T13:57:45.309Z,1020.04
2022-11-12T14:00:31.886Z,1020
2022-11-12T14:01:31.749Z,1020.02
2022-11-12T14:02:31.762Z,1020.04
2022-11-12T14:03:31.762Z,1020.03
2022-11-12T14:04:31.788Z,1020.06
2022-11-12T14:05:31.799Z,1020.09
2022-11-12T14:06:31.824Z,1020.07
2022-11-12T14:07:31.826Z,1020.1
2022-11-12T14:08:31.842Z,1020.04
2022-11-12T14:09:31.863Z,1020.03
2022-11-12T14:10:31.877Z,1020.02
2022-11-12T14:11:31.883Z,1020.06
2022-11-12T14:12:31.898Z,1020.03
2022-11-12T14:13:31.916Z,1020.01
2022-11-12T14:14:31.931Z,1020.05
2022-11-12T14:15:31.943Z,1020.04
2022-11-12T14:16:32.095Z,1020
2022-11-12T14:17:31.967Z,1020.01
2022-11-12T14:18:31.983Z,1020
2022-11-12T14:19:31.995Z,1019.98
2022-11-12T14:20:32.010Z,1019.99
2022-11-12T14:21:32.029Z,1019.93
2022-11-12T14:22:32.040Z,1019.95
2022-11-12T14:23:32.058Z,1019.94
2022-11-12T14:24:32.077Z,1019.91
2022-11-12T14:25:32.081Z,1019.92
2022-11-12T14:26:32.097Z,1019.94
2022-11-12T14:27:32.112Z,1019.96
2022-11-12T14:28:32.149Z,1019.95
2022-11-12T14:29:35.419Z,1019.91
2022-11-12T14:30:32.323Z,1019.83
2022-11-12T14:31:32.198Z,1019.84
2022-11-12T14:32:32.300Z,1019.83
2022-11-12T14:33:32.202Z,1019.89
2022-11-12T14:34:32.212Z,1019.86
2022-11-12T14:35:32.223Z,1019.83
2022-11-12T14:36:32.232Z,1019.82
2022-11-12T14:37:32.247Z,1019.77
2022-11-12T14:38:32.269Z,1019.75
2022-11-12T14:39:32.282Z,1019.7
2022-11-12T14:40:32.287Z,1019.71
2022-11-12T14:41:32.302Z,1019.71
2022-11-12T14:42:32.313Z,1019.71
2022-11-12T14:43:32.323Z,1019.72
2022-11-12T14:44:32.342Z,1019.68
2022-11-12T14:45:35.040Z,1019.68
2022-11-12T14:46:32.376Z,1019.65
2022-11-12T14:47:32.374Z,1019.6
2022-11-12T14:48:32.522Z,1019.56
2022-11-12T14:49:32.397Z,1019.57
2022-11-12T14:50:36.034Z,1019.52
2022-11-12T14:51:32.427Z,1019.53
2022-11-12T14:52:32.443Z,1019.55
2022-11-12T14:53:32.933Z,1019.58
2022-11-12T14:54:32.469Z,1019.54
2022-11-12T14:55:32.494Z,1019.54
2022-11-12T14:56:35.505Z,1019.55
2022-11-12T14:57:32.726Z,1019.54
2022-11-12T14:58:32.736Z,1019.59
2022-11-12T14:59:32.532Z,1019.57
2022-11-12T15:00:32.617Z,1019.6
2022-11-12T15:03:03.150Z,1019.57
2022-11-12T15:04:03.247Z,1019.57
2022-11-12T15:05:03.125Z,1019.58
2022-11-12T15:06:03.137Z,1019.57
2022-11-12T15:07:03.295Z,1019.53
2022-11-12T15:08:03.158Z,1019.52
2022-11-12T15:09:03.187Z,1019.53
2022-11-12T15:10:03.241Z,1019.55
2022-11-12T15:11:03.219Z,1019.51
2022-11-12T15:12:03.200Z,1019.54
2022-11-12T15:13:03.212Z,1019.55
2022-11-12T15:14:03.225Z,1019.52
2022-11-12T15:15:03.236Z,1019.51
2022-11-12T15:16:03.251Z,1019.49
2022-11-12T15:17:03.260Z,1019.47
2022-11-12T15:18:03.275Z,1019.48
2022-11-12T15:19:03.288Z,1019.46
2022-11-12T15:20:03.413Z,1019.46
2022-11-12T15:21:03.305Z,1019.45
2022-11-12T15:22:03.320Z,1019.41
2022-11-12T15:23:03.327Z,1019.4
2022-11-12T15:24:03.338Z,1019.37
2022-11-12T15:25:03.382Z,1019.35
2022-11-12T15:26:03.355Z,1019.34
2022-11-12T15:27:03.390Z,1019.36
2022-11-12T15:28:03.383Z,1019.37
2022-11-12T15:29:03.413Z,1019.44
2022-11-12T15:30:03.397Z,1019.43
2022-11-12T15:31:03.410Z,1019.44
2022-11-12T15:32:03.419Z,1019.42
2022-11-12T15:33:03.435Z,1019.36
2022-11-12T15:34:03.494Z,1019.39
2022-11-12T15:35:04.060Z,1019.34
2022-11-12T15:36:03.579Z,1019.33
2022-11-12T15:37:03.473Z,1019.31
2022-11-12T15:38:03.477Z,1019.38
2022-11-12T15:39:03.482Z,1019.4
2022-11-12T15:40:03.497Z,1019.4
2022-11-12T15:41:03.500Z,1019.45
2022-11-12T15:42:03.516Z,1019.44
2022-11-12T15:43:03.537Z,1019.43
2022-11-12T15:44:03.545Z,1019.4
2022-11-12T15:45:03.557Z,1019.34
2022-11-12T15:46:03.565Z,1019.31
2022-11-12T15:47:03.579Z,1019.31
2022-11-12T15:48:03.572Z,1019.31
2022-11-12T15:49:03.575Z,1019.37
2022-11-12T15:50:03.587Z,1019.37
2022-11-12T15:51:03.597Z,1019.4
2022-11-12T15:52:03.717Z,1019.39
2022-11-12T15:53:03.627Z,1019.35
2022-11-12T15:54:03.643Z,1019.33
2022-11-12T15:55:03.660Z,1019.28
2022-11-12T15:56:03.649Z,1019.31
2022-11-12T15:57:03.656Z,1019.29
2022-11-12T15:58:03.661Z,1019.35
2022-11-12T15:59:03.686Z,1019.37
2022-11-12T16:00:08.052Z,1019.38
2022-11-12T16:01:03.735Z,1019.39
2022-11-12T16:02:03.690Z,1019.38
2022-11-12T16:03:03.739Z,1019.37
2022-11-12T16:04:03.721Z,1019.35
2022-11-12T16:05:03.722Z,1019.3
2022-11-12T16:06:08.482Z,1019.35
2022-11-12T16:07:03.787Z,1019.31
2022-11-12T16:08:03.873Z,1019.29
2022-11-12T16:09:03.765Z,1019.37
2022-11-12T16:10:03.775Z,1019.39
2022-11-12T16:11:03.787Z,1019.4
2022-11-12T16:12:03.848Z,1019.46
2022-11-12T16:13:03.801Z,1019.47
2022-11-12T16:14:03.809Z,1019.44
2022-11-12T16:15:03.817Z,1019.34
2022-11-12T16:16:03.947Z,1019.28
2022-11-12T16:17:03.827Z,1019.3
2022-11-12T16:18:03.834Z,1019.33
2022-11-12T16:19:03.853Z,1019.36
2022-11-12T16:20:03.852Z,1019.39
2022-11-12T16:21:03.864Z,1019.41
2022-11-12T16:22:03.869Z,1019.45
2022-11-12T16:23:03.876Z,1019.43
2022-11-12T16:24:03.999Z,1019.43
2022-11-12T16:25:03.892Z,1019.42
2022-11-12T16:26:03.893Z,1019.43
2022-11-12T16:27:03.926Z,1019.4
2022-11-12T16:28:03.924Z,1019.37
2022-11-12T16:29:04.178Z,1019.39
2022-11-12T16:30:03.933Z,1019.4
2022-11-12T16:31:03.940Z,1019.42
2022-11-12T16:32:03.948Z,1019.47
2022-11-12T16:33:03.957Z,1019.48
2022-11-12T16:34:03.968Z,1019.52
2022-11-12T16:35:03.971Z,1019.51
2022-11-12T16:36:03.985Z,1019.44
2022-11-12T16:37:03.993Z,1019.43
2022-11-12T16:38:04.003Z,1019.42
2022-11-12T16:39:04.111Z,1019.41
2022-11-12T16:40:04.230Z,1019.38
2022-11-12T16:41:04.020Z,1019.42
2022-11-12T16:42:04.036Z,1019.46
2022-11-12T16:43:04.034Z,1019.5
2022-11-12T16:44:04.044Z,1019.5
2022-11-12T16:45:04.055Z,1019.48
2022-11-12T16:46:04.066Z,1019.42
2022-11-12T16:47:04.068Z,1019.43
2022-11-12T16:48:04.071Z,1019.4
2022-11-12T16:49:04.079Z,1019.41
2022-11-12T16:50:04.093Z,1019.43
2022-11-12T16:51:04.693Z,1019.42
2022-11-12T16:52:04.213Z,1019.51
2022-11-12T16:53:04.113Z,1019.49
2022-11-12T16:54:04.120Z,1019.47
2022-11-12T16:55:04.913Z,1019.41
2022-11-12T16:56:04.523Z,1019.33
2022-11-12T16:57:04.629Z,1019.34
2022-11-12T16:58:04.160Z,1019.32
2022-11-12T16:59:04.152Z,1019.42
2022-11-12T17:00:04.158Z,1019.45
2022-11-12T17:01:04.224Z,1019.45